createdAt,value
2019-05-13T00:08:25.897Z,5.62
2019-05-13T00:19:10.922Z,5.54
2019-05-13T00:29:53.915Z,5.38
2019-05-13T00:40:36.898Z,5.24
2019-05-13T00:51:16.026Z,5.11
2019-05-13T01:01:54.724Z,4.95
2019-05-13T01:12:37.013Z,4.90
2019-05-13T01:23:19.037Z,4.81
2019-05-13T01:34:04.059Z,4.72
2019-05-13T01:44:36.724Z,4.59
2019-05-13T01:55:19.738Z,4.47
2019-05-13T02:06:03.846Z,4.30
2019-05-13T02:16:40.011Z,4.22
2019-05-13T02:27:22.045Z,4.05
2019-05-13T02:38:17.868Z,3.95
2019-05-13T02:48:42.966Z,3.83
2019-05-13T02:59:23.718Z,3.70
2019-05-13T03:10:04.443Z,3.51
2019-05-13T03:20:45.885Z,3.30
2019-05-13T03:31:26.989Z,3.26
2019-05-13T03:42:05.862Z,3.17
2019-05-13T03:52:52.578Z,3.07
2019-05-13T04:03:27.080Z,2.98
2019-05-13T04:14:12.145Z,2.91
2019-05-13T04:24:49.104Z,2.92
2019-05-13T04:35:25.931Z,2.99
2019-05-13T04:46:08.910Z,5.59
2019-05-13T04:57:03.226Z,14.61
2019-05-13T05:07:47.191Z,18.72
2019-05-13T05:18:35.917Z,22.76
2019-05-13T05:29:24.924Z,23.50
2019-05-13T05:40:12.205Z,26.33
2019-05-13T05:50:53.925Z,24.63
2019-05-13T06:01:25.990Z,19.96
2019-05-13T06:12:02.054Z,19.86
2019-05-13T06:22:42.405Z,16.57
2019-05-13T06:33:22.116Z,18.64
2019-05-13T06:44:05.205Z,17.88
2019-05-13T06:54:47.875Z,15.76
2019-05-13T07:05:25.636Z,12.98
2019-05-13T07:16:03.315Z,11.19
2019-05-13T07:26:45.999Z,10.62
2019-05-13T07:37:28.875Z,9.82
2019-05-13T07:48:20.688Z,9.92
2019-05-13T07:58:54.908Z,10.10
2019-05-13T08:09:41.707Z,10.28
2019-05-13T08:20:22.112Z,10.31
2019-05-13T08:31:05.900Z,11.11
2019-05-13T08:41:51.630Z,11.80
2019-05-13T08:52:31.191Z,11.27
2019-05-13T09:03:06.292Z,11.35
2019-05-13T09:13:51.434Z,12.39
2019-05-13T09:24:34.216Z,12.16
2019-05-13T09:35:12.001Z,12.49
2019-05-13T09:45:54.991Z,12.77
2019-05-13T09:56:36.767Z,13.11
2019-05-13T10:07:13.825Z,14.11
2019-05-13T10:17:52.743Z,14.15
2019-05-13T10:28:35.271Z,14.37
2019-05-13T10:39:17.968Z,14.36
2019-05-13T10:50:02.760Z,14.57
2019-05-13T11:00:45.340Z,14.63
2019-05-13T11:11:27.151Z,14.81
2019-05-13T11:22:12.262Z,15.14
2019-05-13T11:32:55.232Z,15.54
2019-05-13T11:43:41.717Z,15.83
2019-05-13T11:54:22.503Z,16.27
2019-05-13T12:05:06.802Z,15.95
2019-05-13T12:15:50.052Z,16.50
2019-05-13T12:26:33.279Z,16.67
2019-05-13T12:37:21.936Z,17.23
2019-05-13T12:48:03.284Z,16.92
2019-05-13T12:58:38.346Z,16.90
2019-05-13T13:09:18.539Z,17.42
2019-05-13T13:20:08.804Z,17.02
2019-05-13T13:30:43.856Z,17.90
2019-05-13T13:41:22.593Z,17.58
2019-05-13T13:51:57.210Z,17.72
2019-05-13T14:02:43.077Z,17.39
2019-05-13T14:13:22.396Z,17.53
2019-05-13T14:24:06.339Z,17.36
2019-05-13T14:34:51.933Z,17.90
2019-05-13T14:45:31.891Z,18.65
2019-05-13T14:56:14.390Z,18.21
2019-05-13T15:06:55.553Z,17.74
2019-05-13T15:17:37.336Z,17.76
2019-05-13T15:28:25.770Z,17.56
2019-05-13T15:39:01.618Z,17.69
2019-05-13T15:49:46.758Z,18.01
2019-05-13T16:00:15.360Z,18.17
2019-05-13T16:10:54.034Z,18.05
2019-05-13T16:21:31.440Z,17.68
2019-05-13T16:32:12.267Z,17.31
2019-05-13T16:42:55.253Z,17.17
2019-05-13T16:53:36.247Z,17.15
2019-05-13T17:04:21.377Z,17.51
2019-05-13T17:14:55.579Z,17.30
2019-05-13T17:25:30.158Z,17.09
2019-05-13T17:36:14.017Z,16.77
2019-05-13T17:47:01.769Z,16.90
2019-05-13T17:57:35.676Z,16.43
2019-05-13T18:08:17.693Z,16.27
2019-05-13T18:18:58.173Z,16.01
2019-05-13T18:29:38.094Z,15.53
2019-05-13T18:40:18.571Z,15.08
2019-05-13T18:50:53.560Z,14.71
2019-05-13T19:01:32.066Z,14.46
2019-05-13T19:12:02.457Z,14.13
2019-05-13T19:22:34.588Z,13.81
2019-05-13T19:33:09.011Z,13.42
2019-05-13T19:43:44.419Z,13.19
2019-05-13T19:54:15.511Z,13.03
2019-05-13T20:04:53.837Z,12.41
2019-05-13T20:15:31.511Z,12.03
2019-05-13T20:26:09.415Z,11.43
2019-05-13T20:36:45.528Z,11.08
2019-05-13T20:47:21.383Z,10.49
2019-05-13T20:57:54.253Z,10.13
2019-05-13T21:08:37.242Z,9.65
2019-05-13T21:19:22.366Z,9.38
2019-05-13T21:30:07.985Z,9.00
2019-05-13T21:40:35.412Z,8.74
2019-05-13T21:51:21.912Z,8.41
2019-05-13T22:01:52.534Z,8.13
2019-05-13T22:12:33.320Z,7.86
2019-05-13T22:23:16.641Z,7.60
2019-05-13T22:34:01.458Z,7.46
2019-05-13T22:44:43.775Z,7.23
2019-05-13T22:55:27.331Z,7.12
2019-05-13T23:06:07.454Z,6.93
2019-05-13T23:16:48.438Z,6.81
2019-05-13T23:27:25.495Z,6.58
2019-05-13T23:38:06.367Z,6.49
2019-05-13T23:48:48.653Z,6.69
2019-05-13T23:59:31.391Z,6.69
